Pagina principală
METAR-TAF:

METAR-TAF

Aeroporturi :

Lake Argyle, Australia

Latitudine: 16-38-13S, longitudine: 128-27-05E, elevație: 159 m

Observații meteo curente

Raportul a fost făcut în urmă cu 1 oră și 22 de minute, la 15:00 UTC
Vânt 6 kt de la Nord
Temperatură 28°C
Umiditate 70%
Presiune 1009 hPa
Vizibilitate de 10 km sau mai mult

METAR: YARG 181500Z AUTO 35006KT 9999 // NCD 28/22 Q1009

Ora: 00:22 (16:22 UTC)


TAF: lipsă

Observații și prognoze meteo pentru peste 4.000 de aeroporturi (rapoarte METAR și TAF).

Stațiile disponibile sunt reprezentate pe hartă prin puncte galbene și roșii.

Țineți indicatorul mouse-ului pe punctul dorit pentru a vedea denumirea stației.

Apoi, faceți clic pentru a vedea observațiile și prognozele meteorologice.

Pentru a schimba harta: Pentru mărire, faceți clic pe butoanele verzi cu cruce neagră; pentru micșorare, pe butonul verde cu o liniuță; pentru hărți învecinate, pe săgețile verzi.


METAR-TAF: